createdAt,value
2022-10-08T00:00:19.733Z,0.00
2022-10-08T00:01:19.734Z,0.00
2022-10-08T00:02:19.836Z,0.00
2022-10-08T00:03:19.735Z,0.00
2022-10-08T00:04:19.826Z,0.00
2022-10-08T00:05:19.726Z,0.00
2022-10-08T00:06:19.726Z,0.00
2022-10-08T00:07:19.720Z,0.00
2022-10-08T00:08:19.725Z,0.00
2022-10-08T00:09:19.741Z,0.00
2022-10-08T00:10:19.721Z,0.00
2022-10-08T00:11:19.721Z,0.00
2022-10-08T00:12:19.720Z,0.00
2022-10-08T00:13:19.718Z,0.00
2022-10-08T00:14:19.717Z,0.00
2022-10-08T00:15:19.715Z,0.00
2022-10-08T00:16:19.780Z,0.00
2022-10-08T00:17:19.713Z,0.00
2022-10-08T00:18:19.713Z,0.00
2022-10-08T00:19:19.710Z,0.00
2022-10-08T00:20:19.709Z,0.00
2022-10-08T00:21:19.705Z,0.00
2022-10-08T00:22:19.706Z,0.00
2022-10-08T00:23:19.708Z,0.00
2022-10-08T00:24:19.705Z,0.00
2022-10-08T00:25:19.725Z,0.00
2022-10-08T00:26:19.707Z,0.00
2022-10-08T00:27:19.702Z,0.00
2022-10-08T00:28:19.750Z,0.00
2022-10-08T00:29:19.703Z,0.00
2022-10-08T00:30:19.697Z,0.00
2022-10-08T00:31:19.757Z,0.00
2022-10-08T00:32:19.702Z,0.00
2022-10-08T00:33:19.696Z,0.00
2022-10-08T00:34:19.693Z,0.00
2022-10-08T00:35:19.694Z,0.00
2022-10-08T00:36:19.695Z,0.00
2022-10-08T00:37:19.697Z,0.00
2022-10-08T00:38:19.688Z,0.00
2022-10-08T00:39:19.698Z,0.00
2022-10-08T00:40:19.685Z,0.00
2022-10-08T00:41:19.708Z,0.00
2022-10-08T00:42:19.694Z,0.00
2022-10-08T00:43:23.898Z,0.00
2022-10-08T00:44:19.684Z,0.00
2022-10-08T00:45:19.679Z,0.00
2022-10-08T00:46:19.679Z,0.00
2022-10-08T00:47:19.679Z,0.00
2022-10-08T00:48:19.676Z,0.00
2022-10-08T00:49:19.683Z,0.00
2022-10-08T00:50:19.677Z,0.00
2022-10-08T00:51:19.686Z,0.00
2022-10-08T00:52:19.684Z,0.00
2022-10-08T00:53:19.678Z,0.00
2022-10-08T00:54:19.681Z,0.00
2022-10-08T00:55:19.670Z,0.00
2022-10-08T00:56:19.669Z,0.00
2022-10-08T00:57:19.692Z,0.00
2022-10-08T00:58:19.672Z,0.00
2022-10-08T00:59:19.668Z,0.00
2022-10-08T01:00:19.713Z,0.00
2022-10-08T01:01:19.730Z,0.00
2022-10-08T01:02:19.788Z,0.00
2022-10-08T01:03:19.665Z,0.00
2022-10-08T01:04:19.664Z,0.00
2022-10-08T01:05:19.664Z,0.00
2022-10-08T01:06:19.668Z,0.00
2022-10-08T01:07:19.661Z,0.00
2022-10-08T01:08:19.657Z,0.00
2022-10-08T01:09:19.847Z,0.00
2022-10-08T01:10:19.653Z,0.00
2022-10-08T01:11:19.662Z,0.00
2022-10-08T01:12:19.650Z,0.00
2022-10-08T01:13:19.782Z,0.00
2022-10-08T01:14:19.654Z,0.00
2022-10-08T01:15:19.648Z,0.00
2022-10-08T01:16:19.669Z,0.00
2022-10-08T01:17:19.650Z,0.00
2022-10-08T01:18:19.649Z,0.00
2022-10-08T01:19:19.643Z,0.00
2022-10-08T01:20:19.645Z,0.00
2022-10-08T01:21:19.647Z,0.00
2022-10-08T01:22:19.638Z,0.00
2022-10-08T01:23:19.636Z,0.00
2022-10-08T01:24:19.640Z,0.00
2022-10-08T01:25:19.637Z,0.00
2022-10-08T01:26:19.647Z,0.00
2022-10-08T01:27:19.632Z,0.00
2022-10-08T01:28:19.767Z,0.00
2022-10-08T01:29:19.655Z,0.00
2022-10-08T01:30:19.631Z,0.00
2022-10-08T01:31:19.684Z,0.00
2022-10-08T01:32:19.631Z,0.00
2022-10-08T01:33:19.628Z,0.00
2022-10-08T01:34:19.628Z,0.00
2022-10-08T01:35:19.630Z,0.00
2022-10-08T01:36:19.620Z,0.00
2022-10-08T01:37:19.626Z,0.00
2022-10-08T01:38:19.620Z,0.00
2022-10-08T01:39:19.622Z,0.00
2022-10-08T01:40:19.619Z,0.00
2022-10-08T01:41:19.621Z,0.00
2022-10-08T01:42:19.617Z,0.00
2022-10-08T01:43:19.619Z,0.00
2022-10-08T01:44:19.613Z,0.00
2022-10-08T01:45:19.652Z,0.00
2022-10-08T01:46:19.704Z,0.00
2022-10-08T01:47:19.611Z,0.00
2022-10-08T01:48:19.608Z,0.00
2022-10-08T01:49:19.607Z,0.00
2022-10-08T01:50:19.605Z,0.00
2022-10-08T01:51:19.608Z,0.00
2022-10-08T01:52:19.606Z,0.00
2022-10-08T01:53:19.606Z,0.00
2022-10-08T01:54:19.602Z,0.00
2022-10-08T01:55:19.601Z,0.00
2022-10-08T01:56:19.602Z,0.00
2022-10-08T01:57:19.600Z,0.00
2022-10-08T01:58:19.597Z,0.00
2022-10-08T01:59:19.594Z,0.00
2022-10-08T02:00:19.599Z,0.00
2022-10-08T02:01:19.689Z,0.00
2022-10-08T02:02:19.653Z,0.00
2022-10-08T02:03:19.598Z,0.00
2022-10-08T02:04:19.602Z,0.00
2022-10-08T02:05:19.591Z,0.00
2022-10-08T02:06:19.597Z,0.00
2022-10-08T02:07:19.609Z,0.00
2022-10-08T02:08:19.602Z,0.00
2022-10-08T02:09:19.590Z,0.00
2022-10-08T02:10:19.587Z,0.00
2022-10-08T02:11:19.586Z,0.00
2022-10-08T02:12:19.584Z,0.00
2022-10-08T02:13:19.582Z,0.00
2022-10-08T02:14:19.588Z,0.00
2022-10-08T02:15:19.581Z,0.00
2022-10-08T02:16:19.622Z,0.00
2022-10-08T02:17:19.607Z,0.00
2022-10-08T02:18:19.574Z,0.00
2022-10-08T02:19:19.574Z,0.00
2022-10-08T02:20:19.568Z,0.00
2022-10-08T02:21:19.571Z,0.00
2022-10-08T02:22:19.571Z,0.00
2022-10-08T02:23:19.567Z,0.00
2022-10-08T02:24:19.573Z,0.00
2022-10-08T02:25:19.569Z,0.00
2022-10-08T02:26:19.567Z,0.00
2022-10-08T02:27:19.565Z,0.00
2022-10-08T02:28:19.618Z,0.00
2022-10-08T02:29:19.566Z,0.00
2022-10-08T02:30:19.562Z,0.00
2022-10-08T02:31:19.630Z,0.00
2022-10-08T02:32:19.561Z,0.00
2022-10-08T02:33:19.578Z,0.00
2022-10-08T02:34:19.555Z,0.00
2022-10-08T02:35:19.554Z,0.00
2022-10-08T02:36:19.555Z,0.00
2022-10-08T02:37:19.551Z,0.00
2022-10-08T02:38:19.563Z,0.00
2022-10-08T02:39:19.551Z,0.00
2022-10-08T02:40:19.557Z,0.00
2022-10-08T02:41:19.552Z,0.00
2022-10-08T02:42:19.556Z,0.00
2022-10-08T02:43:19.551Z,0.00
2022-10-08T02:44:19.548Z,0.00
2022-10-08T02:45:19.546Z,0.00
2022-10-08T02:46:19.602Z,0.00
2022-10-08T02:47:19.545Z,0.00
2022-10-08T02:48:19.539Z,0.00
2022-10-08T02:49:19.559Z,0.00
2022-10-08T02:50:19.541Z,0.00
2022-10-08T02:51:19.541Z,0.00
2022-10-08T02:52:19.535Z,0.00
2022-10-08T02:53:19.536Z,0.00
2022-10-08T02:54:19.533Z,0.00
2022-10-08T02:55:19.529Z,0.00
2022-10-08T02:56:19.532Z,0.00
2022-10-08T02:57:19.530Z,0.00
2022-10-08T02:58:19.533Z,0.00
2022-10-08T02:59:19.525Z,0.00
2022-10-08T03:00:19.529Z,0.00
2022-10-08T03:01:19.674Z,0.00
2022-10-08T03:02:19.568Z,0.00
2022-10-08T03:03:19.524Z,0.00
2022-10-08T03:04:19.525Z,0.00
2022-10-08T03:05:19.548Z,0.00
2022-10-08T03:06:19.521Z,0.00
2022-10-08T03:07:19.520Z,0.00
2022-10-08T03:08:19.519Z,0.00
2022-10-08T03:09:19.515Z,0.00
2022-10-08T03:10:19.514Z,0.00
2022-10-08T03:11:19.513Z,0.00
2022-10-08T03:12:19.515Z,0.00
2022-10-08T03:13:19.514Z,0.00
2022-10-08T03:14:19.512Z,0.00
2022-10-08T03:15:19.509Z,0.00
2022-10-08T03:16:19.548Z,0.00
2022-10-08T03:17:19.506Z,0.00
2022-10-08T03:18:19.510Z,0.00
2022-10-08T03:19:19.511Z,0.00
2022-10-08T03:20:19.505Z,0.00
2022-10-08T03:21:19.523Z,0.00
2022-10-08T03:22:19.495Z,0.00
2022-10-08T03:23:19.498Z,0.00
2022-10-08T03:24:19.505Z,0.00
2022-10-08T03:25:19.494Z,0.00
2022-10-08T03:26:19.496Z,0.00
2022-10-08T03:27:19.492Z,0.00
2022-10-08T03:28:19.579Z,0.00
2022-10-08T03:29:19.491Z,0.00
2022-10-08T03:30:19.498Z,0.00
2022-10-08T03:31:19.600Z,0.00
2022-10-08T03:32:19.490Z,0.00
2022-10-08T03:33:19.491Z,0.00
2022-10-08T03:34:19.486Z,0.00
2022-10-08T03:35:19.487Z,0.00
2022-10-08T03:36:19.490Z,0.00
2022-10-08T03:37:19.507Z,0.00
2022-10-08T03:38:19.485Z,0.00
2022-10-08T03:39:19.480Z,0.00
2022-10-08T03:40:19.482Z,0.00
2022-10-08T03:41:19.476Z,0.00
2022-10-08T03:42:19.477Z,0.00
2022-10-08T03:43:19.476Z,0.00
2022-10-08T03:44:19.478Z,0.00
2022-10-08T03:45:19.472Z,0.00
2022-10-08T03:46:19.520Z,0.00
2022-10-08T03:47:19.474Z,0.00
2022-10-08T03:48:19.467Z,0.00
2022-10-08T03:49:19.474Z,0.00
2022-10-08T03:50:19.467Z,0.00
2022-10-08T03:51:19.462Z,0.00
2022-10-08T03:52:19.466Z,0.00
2022-10-08T03:53:19.486Z,0.00
2022-10-08T03:54:19.470Z,0.00
2022-10-08T03:55:19.461Z,0.00
2022-10-08T03:56:19.475Z,0.00
2022-10-08T03:57:19.458Z,0.00
2022-10-08T03:58:19.463Z,0.00
2022-10-08T03:59:19.455Z,0.00
2022-10-08T04:00:19.454Z,0.00
2022-10-08T04:01:19.516Z,0.00
2022-10-08T04:02:19.507Z,0.00
2022-10-08T04:03:19.445Z,0.00
2022-10-08T04:04:24.548Z,0.00
2022-10-08T04:05:19.447Z,0.00
2022-10-08T04:06:19.448Z,0.00
2022-10-08T04:07:19.447Z,0.00
2022-10-08T04:08:19.446Z,0.00
2022-10-08T04:09:19.466Z,0.00
2022-10-08T04:10:19.446Z,0.00
2022-10-08T04:11:19.442Z,0.00
2022-10-08T04:12:19.436Z,0.00
2022-10-08T04:13:19.435Z,0.00
2022-10-08T04:14:19.439Z,0.00
2022-10-08T04:15:19.436Z,0.00
2022-10-08T04:16:19.534Z,0.00
2022-10-08T04:17:19.430Z,0.00
2022-10-08T04:18:19.432Z,0.00
2022-10-08T04:19:19.428Z,0.00
2022-10-08T04:20:19.430Z,0.00
2022-10-08T04:21:19.425Z,0.00
2022-10-08T04:22:19.427Z,0.00
2022-10-08T04:23:19.422Z,0.00
2022-10-08T04:24:19.425Z,0.00
2022-10-08T04:25:19.444Z,0.00
2022-10-08T04:26:19.425Z,0.00
2022-10-08T04:27:19.418Z,0.00
2022-10-08T04:28:19.516Z,0.00
2022-10-08T04:29:19.420Z,0.00
2022-10-08T04:30:19.414Z,0.00
2022-10-08T04:31:19.493Z,0.00
2022-10-08T04:32:19.413Z,0.00
2022-10-08T04:33:19.412Z,0.00
2022-10-08T04:34:19.415Z,0.00
2022-10-08T04:35:19.413Z,0.00
2022-10-08T04:36:19.408Z,0.00
2022-10-08T04:37:19.411Z,0.00
2022-10-08T04:38:19.409Z,0.00
2022-10-08T04:39:19.413Z,0.00
2022-10-08T04:40:19.414Z,0.00
2022-10-08T04:41:19.428Z,0.00
2022-10-08T04:42:19.402Z,0.00
2022-10-08T04:43:19.403Z,0.00
2022-10-08T04:44:19.398Z,0.00
2022-10-08T04:45:19.396Z,4.00
2022-10-08T04:46:19.495Z,4.00
2022-10-08T04:47:19.394Z,0.00
2022-10-08T04:48:19.394Z,0.00
2022-10-08T04:49:19.388Z,0.00
2022-10-08T04:50:19.391Z,0.00
2022-10-08T04:51:19.389Z,4.00
2022-10-08T04:52:19.392Z,4.00
2022-10-08T04:53:19.386Z,4.00
2022-10-08T04:54:19.384Z,4.00
2022-10-08T04:55:19.388Z,4.00
2022-10-08T04:56:19.384Z,4.00
2022-10-08T04:57:19.404Z,8.00
2022-10-08T04:58:19.380Z,8.00
2022-10-08T04:59:19.376Z,8.00
2022-10-08T05:00:19.612Z,12.00
2022-10-08T05:01:19.476Z,12.00
2022-10-08T05:02:19.401Z,16.00
2022-10-08T05:03:19.375Z,16.00
2022-10-08T05:04:19.371Z,20.00
2022-10-08T05:05:19.371Z,24.00
2022-10-08T05:06:19.368Z,28.00
2022-10-08T05:07:19.364Z,32.00
2022-10-08T05:08:19.368Z,32.00
2022-10-08T05:09:19.363Z,36.00
2022-10-08T05:10:19.368Z,40.00
2022-10-08T05:11:19.364Z,48.00
2022-10-08T05:12:19.363Z,52.00
2022-10-08T05:13:19.374Z,60.00
2022-10-08T05:14:19.358Z,64.00
2022-10-08T05:15:19.356Z,72.00
2022-10-08T05:16:19.472Z,80.00
2022-10-08T05:17:19.351Z,88.00
2022-10-08T05:18:19.353Z,96.00
2022-10-08T05:19:19.356Z,104.00
2022-10-08T05:20:19.352Z,112.00
2022-10-08T05:21:19.346Z,120.00
2022-10-08T05:22:19.347Z,128.00
2022-10-08T05:23:19.349Z,136.00
2022-10-08T05:24:19.351Z,148.00
2022-10-08T05:25:19.347Z,160.00
2022-10-08T05:26:19.345Z,176.00
2022-10-08T05:27:19.344Z,192.00
2022-10-08T05:28:19.373Z,212.00
2022-10-08T05:29:19.366Z,228.00
2022-10-08T05:30:21.940Z,240.00
2022-10-08T05:31:19.368Z,240.00
2022-10-08T05:32:19.336Z,244.00
2022-10-08T05:33:19.330Z,248.00
2022-10-08T05:34:19.333Z,252.00
2022-10-08T05:35:19.330Z,260.00
2022-10-08T05:36:19.329Z,264.00
2022-10-08T05:37:19.331Z,276.00
2022-10-08T05:38:19.324Z,292.00
2022-10-08T05:39:19.321Z,300.00
2022-10-08T05:40:19.321Z,308.00
2022-10-08T05:41:19.320Z,316.00
2022-10-08T05:42:19.320Z,328.00
2022-10-08T05:43:19.320Z,348.00
2022-10-08T05:44:19.317Z,360.00
2022-10-08T05:45:19.410Z,376.00
2022-10-08T05:46:19.343Z,392.00
2022-10-08T05:47:19.313Z,408.00
2022-10-08T05:48:19.315Z,420.00
2022-10-08T05:49:19.309Z,428.00
2022-10-08T05:50:19.307Z,444.00
2022-10-08T05:51:19.309Z,456.00
2022-10-08T05:52:19.310Z,468.00
2022-10-08T05:53:19.303Z,480.00
2022-10-08T05:54:19.304Z,488.00
2022-10-08T05:55:19.296Z,496.00
2022-10-08T05:56:19.300Z,504.00
2022-10-08T05:57:19.295Z,524.00
2022-10-08T05:58:19.295Z,564.00
2022-10-08T05:59:19.294Z,616.00
2022-10-08T06:00:19.295Z,664.00
2022-10-08T06:01:19.312Z,696.00
2022-10-08T06:02:19.293Z,720.00
2022-10-08T06:03:19.290Z,736.00
2022-10-08T06:04:19.385Z,752.00
2022-10-08T06:05:19.284Z,760.00
2022-10-08T06:06:19.283Z,748.00
2022-10-08T06:07:19.282Z,744.00
2022-10-08T06:08:19.290Z,744.00
2022-10-08T06:09:19.278Z,736.00
2022-10-08T06:10:19.285Z,712.00
2022-10-08T06:11:19.276Z,696.00
2022-10-08T06:12:19.276Z,700.00
2022-10-08T06:13:19.274Z,700.00
2022-10-08T06:14:19.291Z,696.00
2022-10-08T06:15:19.277Z,688.00
2022-10-08T06:16:19.320Z,676.00
2022-10-08T06:17:19.296Z,664.00
2022-10-08T06:18:19.265Z,668.00
2022-10-08T06:19:19.265Z,684.00
2022-10-08T06:20:19.268Z,720.00
2022-10-08T06:21:19.260Z,748.00
2022-10-08T06:22:19.262Z,756.00
2022-10-08T06:23:19.261Z,756.00
2022-10-08T06:24:19.258Z,788.00
2022-10-08T06:25:19.258Z,780.00
2022-10-08T06:26:19.257Z,768.00
2022-10-08T06:27:19.252Z,780.00
2022-10-08T06:28:19.286Z,796.00
2022-10-08T06:29:19.248Z,816.00
2022-10-08T06:30:19.286Z,852.00
2022-10-08T06:31:19.319Z,904.00
2022-10-08T06:32:19.249Z,956.00
2022-10-08T06:33:19.268Z,992.00
2022-10-08T06:34:19.248Z,964.00
2022-10-08T06:35:19.243Z,996.00
2022-10-08T06:36:19.245Z,1064.00
2022-10-08T06:37:19.239Z,1124.00
2022-10-08T06:38:19.239Z,1248.00
2022-10-08T06:39:19.234Z,1316.00
2022-10-08T06:40:19.240Z,1368.00
2022-10-08T06:41:19.230Z,1240.00
2022-10-08T06:42:19.237Z,1088.00
2022-10-08T06:43:19.234Z,1032.00
2022-10-08T06:44:19.281Z,1072.00
2022-10-08T06:45:19.227Z,1064.00
2022-10-08T06:46:19.332Z,1100.00
2022-10-08T06:47:19.223Z,1180.00
2022-10-08T06:48:19.227Z,1196.00
2022-10-08T06:49:19.246Z,1284.00
2022-10-08T06:50:19.223Z,1368.00
2022-10-08T06:51:19.224Z,1316.00
2022-10-08T06:52:19.218Z,1344.00
2022-10-08T06:53:19.222Z,1432.00
2022-10-08T06:54:19.216Z,1480.00
2022-10-08T06:55:19.218Z,1436.00
2022-10-08T06:56:19.213Z,1452.00
2022-10-08T06:57:19.210Z,1564.00
2022-10-08T06:58:19.215Z,1600.00
2022-10-08T06:59:19.209Z,1460.00
2022-10-08T07:00:19.207Z,1572.00
2022-10-08T07:01:19.312Z,1700.00
2022-10-08T07:02:19.285Z,1960.00
2022-10-08T07:03:19.202Z,2120.00
2022-10-08T07:04:19.202Z,2508.00
2022-10-08T07:05:19.225Z,2888.00
2022-10-08T07:06:19.197Z,3224.00
2022-10-08T07:07:19.198Z,3960.00
2022-10-08T07:08:19.199Z,4872.00
2022-10-08T07:09:19.198Z,5328.00
2022-10-08T07:10:19.195Z,4700.00
2022-10-08T07:11:19.193Z,4728.00
2022-10-08T07:12:19.195Z,4744.00
2022-10-08T07:13:19.190Z,4956.00
2022-10-08T07:14:19.188Z,4888.00
2022-10-08T07:15:19.187Z,4196.00
2022-10-08T07:16:21.099Z,4044.00
2022-10-08T07:17:19.184Z,3508.00
2022-10-08T07:18:19.186Z,4180.00
2022-10-08T07:19:19.186Z,2988.00
2022-10-08T07:20:19.179Z,2652.00
2022-10-08T07:21:19.202Z,2616.00
2022-10-08T07:22:19.182Z,2696.00
2022-10-08T07:23:19.178Z,2608.00
2022-10-08T07:24:19.179Z,2840.00
2022-10-08T07:25:19.177Z,2204.00
2022-10-08T07:26:19.181Z,2320.00
2022-10-08T07:27:19.176Z,2196.00
2022-10-08T07:28:19.288Z,2024.00
2022-10-08T07:29:19.174Z,2112.00
2022-10-08T07:30:19.166Z,2196.00
2022-10-08T07:31:19.224Z,2124.00
2022-10-08T07:32:19.172Z,2244.00
2022-10-08T07:33:19.168Z,2328.00
2022-10-08T07:34:19.167Z,2796.00
2022-10-08T07:35:19.169Z,3584.00
2022-10-08T07:36:19.163Z,4652.00
2022-10-08T07:37:19.184Z,4428.00
2022-10-08T07:38:19.163Z,4560.00
2022-10-08T07:39:19.166Z,4828.00
2022-10-08T07:40:19.167Z,5260.00
2022-10-08T07:41:19.161Z,5844.00
2022-10-08T07:42:19.157Z,5200.00
2022-10-08T07:43:19.910Z,6900.00
2022-10-08T07:44:19.160Z,7356.00
2022-10-08T07:45:19.158Z,7588.00
2022-10-08T07:46:19.157Z,7572.00
2022-10-08T07:47:19.160Z,7324.00
2022-10-08T07:48:19.156Z,7076.00
2022-10-08T07:49:19.157Z,8640.00
2022-10-08T07:50:19.149Z,10000.00
2022-10-08T07:51:19.151Z,8316.00
2022-10-08T07:52:19.151Z,8360.00
2022-10-08T07:53:19.170Z,8592.00
2022-10-08T07:54:19.160Z,9200.00
2022-10-08T07:55:19.153Z,9288.00
2022-10-08T07:56:19.149Z,8532.00
2022-10-08T07:57:19.145Z,7004.00
2022-10-08T07:58:19.148Z,5508.00
2022-10-08T07:59:19.149Z,3764.00
2022-10-08T08:00:23.852Z,5052.00
2022-10-08T08:01:19.214Z,5388.00
2022-10-08T08:02:19.314Z,4172.00
2022-10-08T08:03:19.148Z,4612.00
2022-10-08T08:04:19.152Z,6684.00
2022-10-08T08:05:19.149Z,5512.00
2022-10-08T08:06:19.143Z,7032.00
2022-10-08T08:07:19.143Z,6528.00
2022-10-08T08:08:19.144Z,5788.00
2022-10-08T08:09:19.166Z,6872.00
2022-10-08T08:10:19.141Z,9528.00
2022-10-08T08:11:19.141Z,9280.00
2022-10-08T08:12:19.147Z,9592.00
2022-10-08T08:13:19.138Z,9496.00
2022-10-08T08:14:19.144Z,9384.00
2022-10-08T08:15:19.139Z,9276.00
2022-10-08T08:16:19.222Z,9148.00
2022-10-08T08:17:19.140Z,9228.00
2022-10-08T08:18:19.142Z,9168.00
2022-10-08T08:19:19.142Z,8900.00
2022-10-08T08:20:19.138Z,9268.00
2022-10-08T08:21:19.138Z,9272.00
2022-10-08T08:22:19.140Z,9284.00
2022-10-08T08:23:19.140Z,5404.00
2022-10-08T08:24:19.140Z,8864.00
2022-10-08T08:25:19.158Z,8296.00
2022-10-08T08:26:19.138Z,8764.00
2022-10-08T08:27:19.139Z,9204.00
2022-10-08T08:28:19.242Z,8696.00
2022-10-08T08:29:19.141Z,9716.00
2022-10-08T08:30:19.136Z,10584.00
2022-10-08T08:31:19.149Z,18656.00
2022-10-08T08:32:19.139Z,33952.00
2022-10-08T08:33:19.136Z,38048.00
2022-10-08T08:34:19.153Z,35616.00
2022-10-08T08:35:19.145Z,37504.00
2022-10-08T08:36:19.142Z,39584.00
2022-10-08T08:37:19.145Z,38912.00
2022-10-08T08:38:19.140Z,38304.00
2022-10-08T08:39:19.144Z,40544.00
2022-10-08T08:40:19.143Z,40128.00
2022-10-08T08:41:20.662Z,41312.00
2022-10-08T08:42:19.144Z,44992.00
2022-10-08T08:43:19.150Z,42400.00
2022-10-08T08:44:19.150Z,45248.00
2022-10-08T08:45:44.849Z,48288.00
2022-10-08T08:46:19.257Z,44320.00
2022-10-08T08:47:19.152Z,26144.00
2022-10-08T08:48:19.159Z,22560.00
2022-10-08T08:49:19.327Z,48000.00
2022-10-08T08:50:19.154Z,44224.00
2022-10-08T08:51:19.159Z,42976.00
2022-10-08T08:52:19.161Z,36960.00
2022-10-08T08:53:19.162Z,47776.00
2022-10-08T08:54:19.169Z,48160.00
2022-10-08T08:55:19.165Z,47744.00
2022-10-08T08:56:19.168Z,46112.00
2022-10-08T08:57:19.195Z,32992.00
2022-10-08T08:58:19.169Z,26944.00
2022-10-08T08:59:19.179Z,46240.00
2022-10-08T09:00:19.178Z,49696.00
2022-10-08T09:01:19.214Z,44256.00
2022-10-08T09:02:19.181Z,48320.00
2022-10-08T09:03:19.184Z,45952.00
2022-10-08T09:04:19.196Z,50976.00
2022-10-08T09:05:19.255Z,50848.00
2022-10-08T09:06:19.197Z,46976.00
2022-10-08T09:07:19.202Z,48288.00
2022-10-08T09:08:19.206Z,53280.00
2022-10-08T09:09:19.216Z,51232.00
2022-10-08T09:10:19.214Z,49408.00
2022-10-08T09:11:19.221Z,51584.00
2022-10-08T09:12:21.014Z,54112.00
2022-10-08T09:13:19.252Z,49440.00
2022-10-08T09:14:19.234Z,49632.00
2022-10-08T09:15:19.240Z,49888.00
2022-10-08T09:16:19.308Z,50432.00
2022-10-08T09:17:19.271Z,51840.00
2022-10-08T09:18:19.263Z,44608.00
2022-10-08T09:19:19.272Z,46624.00
2022-10-08T09:20:19.278Z,47872.00
2022-10-08T09:21:19.284Z,48992.00
2022-10-08T09:22:19.291Z,47648.00
2022-10-08T09:23:19.298Z,47424.00
2022-10-08T09:24:19.312Z,47840.00
2022-10-08T09:25:19.317Z,47456.00
2022-10-08T09:26:19.325Z,50592.00
2022-10-08T09:27:19.343Z,52096.00
2022-10-08T09:28:19.375Z,54144.00
2022-10-08T09:29:19.375Z,46560.00
2022-10-08T09:30:19.360Z,51840.00
2022-10-08T09:31:19.435Z,52096.00
2022-10-08T09:32:19.379Z,16168.00
2022-10-08T09:33:19.387Z,33248.00
2022-10-08T09:34:19.402Z,11188.00
2022-10-08T09:35:19.406Z,50240.00
2022-10-08T09:36:19.419Z,43968.00
2022-10-08T09:37:19.429Z,11300.00
2022-10-08T09:38:19.444Z,55232.00
2022-10-08T09:39:19.448Z,55776.00
2022-10-08T09:40:19.462Z,8132.00
2022-10-08T09:41:19.485Z,9500.00
2022-10-08T09:42:19.479Z,55424.00
2022-10-08T09:43:19.492Z,56256.00
2022-10-08T09:44:19.497Z,39328.00
2022-10-08T09:45:22.244Z,55168.00
2022-10-08T09:46:19.563Z,56960.00
2022-10-08T09:47:19.615Z,21600.00
2022-10-08T09:48:19.544Z,55648.00
2022-10-08T09:49:19.548Z,52480.00
2022-10-08T09:50:19.627Z,13012.00
2022-10-08T09:51:19.569Z,31424.00
2022-10-08T09:52:19.575Z,19360.00
2022-10-08T09:53:19.590Z,38848.00
2022-10-08T09:54:19.593Z,16072.00
2022-10-08T09:55:19.611Z,11184.00
2022-10-08T09:56:19.618Z,9716.00
2022-10-08T09:57:19.625Z,8028.00
2022-10-08T09:58:19.642Z,11588.00
2022-10-08T09:59:19.646Z,11140.00
2022-10-08T10:00:19.782Z,9020.00
2022-10-08T10:01:19.766Z,8152.00
2022-10-08T10:02:19.674Z,7708.00
2022-10-08T10:03:19.690Z,9200.00
2022-10-08T10:04:19.793Z,10536.00
2022-10-08T10:05:20.029Z,12628.00
2022-10-08T10:06:21.268Z,20000.00
2022-10-08T10:07:19.718Z,33984.00
2022-10-08T10:08:19.724Z,9936.00
2022-10-08T10:09:19.730Z,7464.00
2022-10-08T10:10:19.836Z,8936.00
2022-10-08T10:11:19.751Z,9980.00
2022-10-08T10:12:19.757Z,10116.00
2022-10-08T10:13:19.760Z,9508.00
2022-10-08T10:14:19.762Z,9236.00
2022-10-08T10:15:19.769Z,9172.00
2022-10-08T10:16:20.067Z,7324.00
2022-10-08T10:17:19.803Z,5852.00
2022-10-08T10:18:19.838Z,4988.00
2022-10-08T10:19:19.815Z,4692.00
2022-10-08T10:20:19.827Z,4660.00
2022-10-08T10:22:19.815Z,3984.00
2022-10-08T10:23:19.821Z,4928.00
2022-10-08T10:24:19.827Z,7000.00
2022-10-08T10:25:19.832Z,7524.00
2022-10-08T10:26:19.840Z,7712.00
2022-10-08T10:27:19.851Z,12092.00
2022-10-08T10:28:19.893Z,12320.00
2022-10-08T10:29:19.856Z,8876.00
2022-10-08T10:30:19.860Z,8372.00
2022-10-08T10:31:19.945Z,7368.00
2022-10-08T10:32:21.269Z,6212.00
2022-10-08T10:33:19.897Z,7172.00
2022-10-08T10:34:19.875Z,8556.00
2022-10-08T10:35:19.882Z,8952.00
2022-10-08T10:36:19.883Z,10260.00
2022-10-08T10:37:19.960Z,8644.00
2022-10-08T10:38:19.890Z,7156.00
2022-10-08T10:39:19.894Z,8544.00
2022-10-08T10:40:19.903Z,9208.00
2022-10-08T10:41:20.007Z,6160.00
2022-10-08T10:42:19.908Z,6748.00
2022-10-08T10:43:19.910Z,6276.00
2022-10-08T10:44:19.920Z,4224.00
2022-10-08T10:45:19.916Z,3636.00
2022-10-08T10:46:19.980Z,3528.00
2022-10-08T10:47:19.922Z,3608.00
2022-10-08T10:48:19.930Z,4228.00
2022-10-08T10:49:19.953Z,4244.00
2022-10-08T10:50:19.928Z,3340.00
2022-10-08T10:51:19.930Z,3220.00
2022-10-08T10:52:19.936Z,2852.00
2022-10-08T10:53:19.939Z,2708.00
2022-10-08T10:54:19.944Z,2992.00
2022-10-08T10:55:19.951Z,4132.00
2022-10-08T10:56:19.946Z,6104.00
2022-10-08T10:57:19.952Z,5656.00
2022-10-08T10:58:19.955Z,4900.00
2022-10-08T10:59:19.956Z,3928.00
2022-10-08T11:00:19.960Z,4184.00
2022-10-08T11:01:19.975Z,4000.00
2022-10-08T11:02:20.012Z,3144.00
2022-10-08T11:03:19.964Z,2980.00
2022-10-08T11:04:19.971Z,2664.00
2022-10-08T11:05:19.989Z,2772.00
2022-10-08T11:06:19.973Z,3004.00
2022-10-08T11:07:19.976Z,4280.00
2022-10-08T11:08:19.977Z,4716.00
2022-10-08T11:09:19.978Z,2940.00
2022-10-08T11:10:19.979Z,2032.00
2022-10-08T11:11:19.980Z,1820.00
2022-10-08T11:12:19.989Z,2880.00
2022-10-08T11:13:19.983Z,5344.00
2022-10-08T11:14:19.988Z,5880.00
2022-10-08T11:15:19.990Z,5904.00
2022-10-08T11:16:20.054Z,4948.00
2022-10-08T11:17:22.199Z,4352.00
2022-10-08T11:18:19.994Z,4708.00
2022-10-08T11:19:19.998Z,5752.00
2022-10-08T11:20:20.000Z,6000.00
2022-10-08T11:21:20.020Z,4516.00
2022-10-08T11:22:20.002Z,4164.00
2022-10-08T11:23:20.004Z,3784.00
2022-10-08T11:24:20.002Z,3524.00
2022-10-08T11:25:20.010Z,4340.00
2022-10-08T11:26:22.708Z,4124.00
2022-10-08T11:27:20.013Z,3380.00
2022-10-08T11:28:20.137Z,3328.00
2022-10-08T11:29:20.013Z,3732.00
2022-10-08T11:30:20.020Z,4092.00
2022-10-08T11:31:20.085Z,4352.00
2022-10-08T11:32:20.014Z,4512.00
2022-10-08T11:33:20.020Z,3972.00
2022-10-08T11:34:20.018Z,3476.00
2022-10-08T11:35:20.020Z,3060.00
2022-10-08T11:36:20.025Z,2612.00
2022-10-08T11:37:20.042Z,2524.00
2022-10-08T11:38:20.019Z,1872.00
2022-10-08T11:39:20.024Z,1620.00
2022-10-08T11:40:20.024Z,1764.00
2022-10-08T11:41:20.036Z,1704.00
2022-10-08T11:42:20.029Z,1616.00
2022-10-08T11:43:20.028Z,1656.00
2022-10-08T11:44:20.028Z,1624.00
2022-10-08T11:45:20.032Z,1724.00
2022-10-08T11:46:20.083Z,1792.00
2022-10-08T11:47:20.038Z,1680.00
2022-10-08T11:48:20.039Z,1868.00
2022-10-08T11:49:20.035Z,1952.00
2022-10-08T11:50:20.033Z,1792.00
2022-10-08T11:51:20.054Z,1828.00
2022-10-08T11:52:20.044Z,1576.00
2022-10-08T11:53:20.067Z,1492.00
2022-10-08T11:54:20.038Z,1732.00
2022-10-08T11:55:20.040Z,2096.00
2022-10-08T11:56:20.037Z,1952.00
2022-10-08T11:57:20.047Z,1916.00
2022-10-08T11:58:20.038Z,1856.00
2022-10-08T11:59:20.046Z,1620.00
2022-10-08T12:00:20.046Z,2012.00
2022-10-08T12:01:20.045Z,2356.00
2022-10-08T12:02:20.217Z,2760.00
2022-10-08T12:03:20.238Z,2908.00
2022-10-08T12:04:20.045Z,2832.00
2022-10-08T12:05:20.047Z,2500.00
2022-10-08T12:06:20.051Z,2088.00
2022-10-08T12:07:20.066Z,2172.00
2022-10-08T12:08:20.051Z,2620.00
2022-10-08T12:09:20.077Z,2984.00
2022-10-08T12:10:20.060Z,3348.00
2022-10-08T12:11:20.055Z,3584.00
2022-10-08T12:12:20.052Z,3740.00
2022-10-08T12:13:20.051Z,3792.00
2022-10-08T12:14:20.060Z,3656.00
2022-10-08T12:15:20.063Z,3620.00
2022-10-08T12:16:20.178Z,3708.00
2022-10-08T12:17:20.051Z,4036.00
2022-10-08T12:18:23.744Z,4456.00
2022-10-08T12:19:20.048Z,4928.00
2022-10-08T12:20:20.059Z,5540.00
2022-10-08T12:21:20.058Z,6104.00
2022-10-08T12:22:20.056Z,6668.00
2022-10-08T12:23:20.062Z,7180.00
2022-10-08T12:24:20.062Z,7168.00
2022-10-08T12:25:20.078Z,7068.00
2022-10-08T12:26:20.060Z,7136.00
2022-10-08T12:27:20.064Z,7264.00
2022-10-08T12:28:20.160Z,7924.00
2022-10-08T12:29:20.059Z,8524.00
2022-10-08T12:30:20.063Z,8812.00
2022-10-08T12:31:20.145Z,8960.00
2022-10-08T12:32:20.066Z,9016.00
2022-10-08T12:33:20.064Z,9148.00
2022-10-08T12:34:20.063Z,9280.00